Arctic Bay, Canada
Current Conditions -  °F | °C
As of 10:00 PM on Tuesday 21 Oct 2014 (Local Time) from CYIO Reporting Station
Light Snow Light Snow  
Wind Chill:   Ceiling: 2300
Heat Index: 19°   Visibility: 9mi
Dew Point: 16°   Wind: 17mph
Humidity: 86%   Direction: 200°SSW
Pressure: 29.57"   Gusts: NA
Location:  73.03°N, 85.17°W
Report Text: CYIO 220300Z AUTO 20015KT 9SM -SN BKN023 OVC038 M07/M09 A2957 RMK SLP020
Loading
Personal Weather Stations






























Interactive Weather Map
Tropical Storm Tracking
New forecast layout! Learn more

10-Day Weather Forecast

Advertisements
Track Severe Weather on mobile